createdAt,value
2023-02-23T08:24:05.137Z,23.50
2023-02-23T08:25:05.049Z,22.80
2023-02-23T08:26:05.027Z,26.00
2023-02-23T08:27:05.001Z,22.90
2023-02-23T08:28:05.021Z,24.30
2023-02-23T08:29:05.003Z,21.50
2023-02-23T08:30:05.043Z,23.10
2023-02-23T08:31:05.028Z,20.30
2023-02-23T08:32:05.047Z,20.70
2023-02-23T08:33:04.936Z,19.20
2023-02-23T08:34:04.898Z,23.80
2023-02-23T08:35:04.881Z,25.00
2023-02-23T08:36:04.903Z,22.60
2023-02-23T08:37:04.902Z,24.10
2023-02-23T08:38:04.881Z,22.50
2023-02-23T08:39:04.860Z,23.20
2023-02-23T08:40:04.841Z,22.10
2023-02-23T08:41:04.839Z,23.20
2023-02-23T08:42:04.806Z,22.20
2023-02-23T08:43:04.810Z,21.30
2023-02-23T08:44:04.789Z,19.40
2023-02-23T08:45:04.767Z,19.00
2023-02-23T08:46:04.820Z,23.40
2023-02-23T08:47:04.743Z,21.50
2023-02-23T08:48:04.750Z,19.80
2023-02-23T08:49:04.695Z,18.90
2023-02-23T08:50:04.673Z,21.70
2023-02-23T08:51:04.689Z,20.70
2023-02-23T08:52:04.696Z,22.60
2023-02-23T08:53:04.634Z,27.10
2023-02-23T08:54:04.652Z,27.20
2023-02-23T08:55:04.604Z,29.90
2023-02-23T08:56:04.586Z,30.90
2023-02-23T08:57:04.572Z,26.10
2023-02-23T08:58:04.563Z,24.00
2023-02-23T08:59:04.554Z,19.60
2023-02-23T09:00:04.568Z,21.10
2023-02-23T09:01:04.612Z,20.20
2023-02-23T09:02:04.809Z,17.90
2023-02-23T09:03:04.501Z,17.40
2023-02-23T09:04:04.509Z,20.00
2023-02-23T09:05:04.524Z,17.60
2023-02-23T09:06:04.492Z,19.50
2023-02-23T09:07:04.487Z,17.40
2023-02-23T09:08:04.487Z,16.80
2023-02-23T09:09:04.425Z,19.10
2023-02-23T09:10:04.392Z,17.20
2023-02-23T09:11:04.435Z,18.50
2023-02-23T09:12:04.378Z,15.80
2023-02-23T09:13:04.382Z,17.20
2023-02-23T09:14:04.367Z,18.50
2023-02-23T09:15:04.325Z,17.30
2023-02-23T09:16:04.473Z,17.70
2023-02-23T09:17:04.354Z,17.70
2023-02-23T09:18:04.329Z,20.80
2023-02-23T09:19:04.363Z,17.30
2023-02-23T09:20:04.277Z,16.90
2023-02-23T09:21:04.285Z,19.10
2023-02-23T09:22:04.230Z,19.70
2023-02-23T09:23:04.249Z,18.00
2023-02-23T09:24:04.225Z,19.60
2023-02-23T09:25:04.223Z,19.40
2023-02-23T09:26:04.241Z,19.90
2023-02-23T09:27:04.200Z,19.10
2023-02-23T09:28:04.182Z,20.30
2023-02-23T09:29:04.175Z,17.60
2023-02-23T09:30:04.183Z,21.10
2023-02-23T09:31:04.237Z,18.90
2023-02-23T09:32:04.272Z,23.90
2023-02-23T09:33:04.099Z,19.70
2023-02-23T09:34:04.099Z,20.30
2023-02-23T09:35:04.111Z,18.70
2023-02-23T09:36:04.052Z,24.70
2023-02-23T09:37:04.068Z,22.00
2023-02-23T09:38:04.048Z,16.30
2023-02-23T09:39:04.036Z,19.00
2023-02-23T09:40:04.047Z,20.90
2023-02-23T09:41:04.008Z,19.80
2023-02-23T09:42:04.001Z,19.40
2023-02-23T09:43:04.006Z,19.50
2023-02-23T09:44:03.938Z,24.30
2023-02-23T09:45:03.956Z,19.90
2023-02-23T09:46:03.951Z,24.70
2023-02-23T09:47:03.925Z,22.60
2023-02-23T09:48:03.896Z,21.30
2023-02-23T09:49:03.877Z,20.40
2023-02-23T09:50:03.884Z,17.40
2023-02-23T09:51:03.835Z,18.40
